Time;durP1;ratioP1;P1;durP2;ratioP2;P2;SDS_P1;SDS_P2;PMS_P1;PMS_P2;Temp;Humidity;BMP_temperature;BMP_pressure;BME280_temperature;BME280_humidity;BME280_pressure;Samples;Min_cycle;Max_cycle;Signal;HPM_P1;HPM_P2
2023/01/15 00:00:37;;;;;;;;;0.00;0.00;;;;;11.72;83.26;-19524.94;4929861;28;45569;-82
2023/01/15 00:03:02;;;;;;;;;1.67;0.00;;;;;11.52;83.18;-19519.81;4943723;28;45484;-82
2023/01/15 00:05:27;;;;;;;;;0.00;0.00;;;;;11.70;82.87;-19524.53;4927673;28;46442;-82
2023/01/15 00:07:53;;;;;;;;;0.00;0.00;;;;;11.61;83.26;-19522.09;4933218;28;46110;-83
2023/01/15 00:10:18;;;;;;;;;0.00;0.00;;;;;10.96;83.22;-19505.13;4943908;28;45653;-83
2023/01/15 00:12:43;;;;;;;;;0.00;0.00;;;;;11.50;82.98;-19519.28;4938942;28;45589;-83
2023/01/15 00:15:09;;;;;;;;;2.00;0.33;;;;;11.43;83.25;-19517.25;4947622;28;46505;-83
2023/01/15 00:17:34;;;;;;;;;0.00;0.00;;;;;11.30;83.34;-19513.88;4943776;28;45496;-82
2023/01/15 00:20:00;;;;;;;;;0.00;0.00;;;;;11.65;82.92;-19523.19;4945908;28;45525;-83
2023/01/15 00:22:25;;;;;;;;;0.00;0.00;;;;;11.68;83.16;-19523.84;4948425;28;45619;-83
2023/01/15 00:27:37;;;;;;;;;0.00;0.00;;;;;11.67;82.62;-19523.72;4939154;28;45480;-83
2023/01/15 00:30:03;;;;;;;;;0.00;0.00;;;;;11.67;82.16;-19523.72;4937153;28;45795;-82
2023/01/15 00:32:29;;;;;;;;;0.00;0.00;;;;;11.40;82.46;-19516.59;4938772;28;45426;-83
2023/01/15 00:34:56;;;;;;;;;0.00;0.00;;;;;11.24;82.06;-19512.41;4944872;28;45432;-82
2023/01/15 00:37:22;;;;;;;;;0.00;0.00;;;;;11.63;82.17;-19522.66;4944745;28;45585;-83
2023/01/15 00:39:47;;;;;;;;;0.00;0.00;;;;;11.66;82.41;-19523.47;4936770;28;45422;-83
2023/01/15 00:42:13;;;;;;;;;0.00;0.00;;;;;11.14;82.34;-19509.72;4939452;28;45415;-83
2023/01/15 00:44:39;;;;;;;;;2.00;0.00;;;;;11.60;82.14;-19521.84;4935465;28;45703;-83
2023/01/15 00:47:05;;;;;;;;;0.00;0.00;;;;;11.28;82.24;-19513.34;4941772;28;46158;-83
2023/01/15 00:49:31;;;;;;;;;0.00;0.00;;;;;11.42;82.66;-19517.13;4940146;28;45492;-83
2023/01/15 00:51:56;;;;;;;;;0.00;0.00;;;;;11.26;82.38;-19512.81;4946689;28;45537;-83
2023/01/15 00:54:22;;;;;;;;;0.00;0.00;;;;;11.46;81.76;-19518.19;4955892;28;45425;-84
2023/01/15 00:56:47;;;;;;;;;0.00;0.00;;;;;11.65;81.70;-19523.06;4952171;28;45963;-84
2023/01/15 00:59:13;;;;;;;;;0.67;0.00;;;;;11.65;81.39;-19523.06;4943171;28;45670;-83
2023/01/15 01:01:38;;;;;;;;;0.00;0.00;;;;;11.39;81.32;-19516.31;4948660;28;45450;-84
2023/01/15 01:04:03;;;;;;;;;0.00;0.00;;;;;11.27;81.54;-19513.06;4941463;28;46729;-84
2023/01/15 01:06:29;;;;;;;;;0.00;0.00;;;;;11.60;81.42;-19521.84;4942924;28;45592;-84
2023/01/15 01:08:54;;;;;;;;;0.00;0.00;;;;;11.47;81.61;-19518.47;4945500;28;45445;-84
2023/01/15 01:11:25;;;;;;;;;0.00;0.00;;;;;11.55;82.28;-19520.63;4940619;28;45595;-84
2023/01/15 01:13:52;;;;;;;;;0.00;0.00;;;;;11.33;81.89;-19514.69;4941472;28;45564;-84
2023/01/15 01:16:34;;;;;;;;;2.00;0.00;;;;;11.13;82.12;-19509.56;4948155;28;45549;-84
2023/01/15 01:19:02;;;;;;;;;0.00;0.00;;;;;11.52;82.03;-19519.81;4952400;28;45805;-84
2023/01/15 01:21:29;;;;;;;;;0.00;0.00;;;;;11.23;82.29;-19512.13;4942795;28;45523;-84
2023/01/15 01:23:56;;;;;;;;;0.00;0.00;;;;;11.52;81.79;-19519.81;4950679;28;46283;-84
2023/01/15 01:26:21;;;;;;;;;0.00;0.00;;;;;11.54;81.59;-19520.34;4938907;28;45592;-83
2023/01/15 01:28:49;;;;;;;;;0.00;0.00;;;;;11.58;81.58;-19521.44;4946493;28;45327;-83
2023/01/15 01:31:14;;;;;;;;;0.00;0.00;;;;;11.56;80.94;-19520.75;4946691;28;45484;-83
2023/01/15 01:33:39;;;;;;;;;0.00;0.00;;;;;11.54;81.07;-19520.22;4942045;28;46148;-83
2023/01/15 01:36:05;;;;;;;;;0.00;0.00;;;;;11.50;81.17;-19519.28;4934290;28;45441;-84
2023/01/15 01:38:30;;;;;;;;;0.00;0.00;;;;;11.15;81.24;-19509.97;4942532;28;45445;-83
2023/01/15 01:40:56;;;;;;;;;0.00;0.00;;;;;11.37;80.66;-19515.91;4951732;28;45488;-83
2023/01/15 01:43:25;;;;;;;;;0.00;0.00;;;;;11.43;80.67;-19517.38;4946023;28;46429;-83
2023/01/15 01:45:50;;;;;;;;;0.00;0.00;;;;;11.13;81.04;-19509.44;4938384;28;45346;-83
2023/01/15 01:48:25;;;;;;;;;0.33;0.00;;;;;10.68;80.83;-19497.72;4948514;28;45698;-83
2023/01/15 01:50:53;;;;;;;;;0.00;0.00;;;;;11.46;80.36;-19518.06;4944532;28;45727;-83
2023/01/15 01:53:26;;;;;;;;;0.00;0.00;;;;;11.18;80.50;-19510.91;4942203;28;46569;-83
2023/01/15 01:55:52;;;;;;;;;0.00;0.00;;;;;11.45;80.54;-19517.94;4943778;28;45746;-83
2023/01/15 01:58:21;;;;;;;;;0.00;0.00;;;;;11.41;80.19;-19517.00;4948334;28;45458;-83
2023/01/15 02:00:49;;;;;;;;;1.00;0.00;;;;;11.43;79.61;-19517.25;4946985;28;45678;-83
2023/01/15 02:03:16;;;;;;;;;0.00;0.00;;;;;10.92;79.94;-19503.91;4947546;28;46198;-83
2023/01/15 02:05:55;;;;;;;;;0.00;0.00;;;;;11.40;80.34;-19516.72;4950215;28;45414;-83
2023/01/15 02:08:22;;;;;;;;;0.00;0.00;;;;;11.39;80.09;-19516.44;4952008;28;47041;-83
2023/01/15 02:10:51;;;;;;;;;1.00;0.00;;;;;11.06;79.82;-19507.56;4948945;28;45524;-83
2023/01/15 02:13:34;;;;;;;;;0.00;0.00;;;;;11.37;80.01;-19515.91;4940683;28;46659;-83
2023/01/15 02:16:05;;;;;;;;;0.00;0.00;;;;;11.30;79.94;-19514.03;4946751;28;45418;-83
2023/01/15 02:18:39;;;;;;;;;1.00;0.00;;;;;9.77;79.47;-19473.56;4938382;28;45493;-83
2023/01/15 02:21:21;;;;;;;;;0.00;0.00;;;;;11.27;79.72;-19513.22;4942156;28;45430;-83
2023/01/15 02:23:49;;;;;;;;;0.67;0.00;;;;;11.40;79.72;-19516.59;4940897;28;47005;-83
2023/01/15 02:26:53;;;;;;;;;0.00;0.00;;;;;11.34;79.52;-19514.97;4939089;28;45777;-82
2023/01/15 02:29:28;;;;;;;;;0.00;0.00;;;;;10.89;79.82;-19503.09;4942878;28;45651;-83
2023/01/15 02:31:53;;;;;;;;;0.00;0.00;;;;;11.41;79.79;-19516.84;4948282;28;45361;-83
2023/01/15 02:34:25;;;;;;;;;0.67;0.00;;;;;11.40;79.14;-19516.72;4945324;28;46823;-83
2023/01/15 02:36:58;;;;;;;;;0.00;0.00;;;;;11.05;79.14;-19507.28;4947786;28;45759;-83
2023/01/15 02:39:27;;;;;;;;;0.00;0.00;;;;;11.04;79.57;-19507.16;4950052;28;45574;-82
2023/01/15 02:41:58;;;;;;;;;0.00;0.00;;;;;11.30;79.50;-19513.88;4947441;28;45719;-83
2023/01/15 02:44:28;;;;;;;;;0.67;0.00;;;;;11.38;79.18;-19516.03;4949526;28;47337;-82
2023/01/15 02:46:55;;;;;;;;;0.33;0.00;;;;;11.30;78.85;-19513.88;4941502;28;46937;-82
2023/01/15 02:49:22;;;;;;;;;0.00;0.00;;;;;11.27;78.82;-19513.22;4947097;28;45527;-83
2023/01/15 02:52:23;;;;;;;;;0.00;0.00;;;;;11.12;78.91;-19509.31;4949102;28;45568;-83
2023/01/15 02:55:12;;;;;;;;;0.00;0.00;;;;;10.96;79.44;-19505.00;4922398;28;47537;-83
2023/01/15 02:57:43;;;;;;;;;0.00;0.00;;;;;11.23;79.48;-19512.00;4949228;28;45501;-83
2023/01/15 03:00:11;;;;;;;;;1.00;0.00;;;;;10.92;79.38;-19504.03;4931767;28;45449;-83
2023/01/15 03:03:03;;;;;;;;;1.00;0.00;;;;;11.18;78.83;-19510.91;4944171;28;45658;-83
2023/01/15 03:05:38;;;;;;;;;0.00;0.00;;;;;10.99;78.50;-19505.78;4919796;28;46689;-83
2023/01/15 03:08:07;;;;;;;;;1.00;0.00;;;;;10.81;78.82;-19500.94;4953833;28;45622;-83
2023/01/15 03:10:42;;;;;;;;;0.00;0.00;;;;;11.16;78.96;-19510.38;4925359;28;45531;-82
2023/01/15 03:13:15;;;;;;;;;2.67;0.00;;;;;10.72;79.20;-19498.78;4952778;28;45583;-83
2023/01/15 03:18:54;;;;;;;;;0.00;0.00;;;;;11.13;78.51;-19509.56;4943677;28;45433;-83
2023/01/15 03:21:27;;;;;;;;;1.00;0.00;;;;;11.14;78.79;-19509.72;4951172;28;45616;-83
2023/01/15 03:23:55;;;;;;;;;0.00;0.00;;;;;11.21;78.86;-19511.59;4949015;28;45324;-83
2023/01/15 03:26:20;;;;;;;;;0.00;0.00;;;;;11.13;78.92;-19509.56;4946621;28;46248;-83
2023/01/15 03:28:47;;;;;;;;;1.00;0.00;;;;;11.15;79.12;-19509.97;4946056;28;45582;-83
2023/01/15 03:31:13;;;;;;;;;0.00;0.00;;;;;11.08;79.02;-19508.09;4947663;28;45746;-83
2023/01/15 03:33:40;;;;;;;;;0.00;0.00;;;;;10.76;79.00;-19499.72;4952297;28;45479;-83
2023/01/15 03:36:05;;;;;;;;;0.00;0.00;;;;;11.12;78.94;-19509.31;4946471;28;45526;-83
2023/01/15 03:38:37;;;;;;;;;0.00;0.00;;;;;11.12;79.06;-19509.31;4949433;28;46022;-82
2023/01/15 03:41:37;;;;;;;;;0.00;0.00;;;;;10.81;78.70;-19501.06;4949243;28;45452;-82
2023/01/15 03:44:14;;;;;;;;;0.00;0.00;;;;;11.07;78.13;-19507.81;4944597;28;45381;-83
2023/01/15 03:46:58;;;;;;;;;0.00;0.00;;;;;10.76;77.77;-19499.88;4942206;28;46394;-83
2023/01/15 03:49:36;;;;;;;;;0.00;0.00;;;;;10.91;77.91;-19503.78;4936376;28;45405;-84
2023/01/15 03:52:13;;;;;;;;;0.67;0.00;;;;;10.97;78.87;-19505.25;4953503;28;45572;-83
2023/01/15 03:54:51;;;;;;;;;0.00;0.00;;;;;10.88;78.17;-19502.97;4947758;28;45496;-83
2023/01/15 03:57:29;;;;;;;;;0.00;0.00;;;;;10.91;77.93;-19503.63;4948217;28;46046;-84
2023/01/15 03:59:58;;;;;;;;;0.00;0.00;;;;;10.88;77.74;-19502.84;4943855;28;45661;-82
2023/01/15 04:02:25;;;;;;;;;0.00;0.00;;;;;10.88;77.80;-19502.84;4940968;28;45499;-82
2023/01/15 04:04:53;;;;;;;;;0.00;0.00;;;;;10.61;77.58;-19495.81;4953750;28;45441;-83
2023/01/15 04:07:19;;;;;;;;;1.00;0.00;;;;;10.63;77.68;-19496.22;4953608;28;45481;-83
2023/01/15 04:09:45;;;;;;;;;0.00;0.00;;;;;10.11;77.28;-19482.59;4947985;28;45742;-83
2023/01/15 04:12:11;;;;;;;;;0.00;0.00;;;;;10.69;76.70;-19497.84;4919064;28;45494;-83
2023/01/15 04:14:36;;;;;;;;;0.00;0.00;;;;;10.81;76.94;-19500.94;4936961;28;45397;-83
2023/01/15 04:17:02;;;;;;;;;0.00;0.00;;;;;10.81;76.94;-19501.06;4950678;28;46245;-83
2023/01/15 04:19:27;;;;;;;;;0.00;0.00;;;;;10.79;76.51;-19500.53;4953742;28;45547;-82
2023/01/15 04:21:52;;;;;;;;;0.00;0.00;;;;;10.53;76.63;-19493.78;4952995;28;45489;-83
2023/01/15 04:24:18;;;;;;;;;0.00;0.00;;;;;10.77;76.64;-19500.13;4946364;28;45464;-82
2023/01/15 04:26:43;;;;;;;;;0.00;0.00;;;;;10.76;76.58;-19499.88;4947082;28;45526;-83
2023/01/15 04:29:09;;;;;;;;;0.00;0.00;;;;;10.73;75.77;-19498.91;4949241;28;45492;-86
2023/01/15 04:31:35;;;;;;;;;0.00;0.00;;;;;10.67;75.50;-19497.31;4933812;28;45830;-85
2023/01/15 04:34:01;;;;;;;;;0.00;0.00;;;;;10.20;75.75;-19484.88;4950164;28;45506;-84
2023/01/15 04:36:27;;;;;;;;;0.00;0.00;;;;;10.41;75.61;-19490.56;4950709;28;47142;-84
2023/01/15 04:38:53;;;;;;;;;0.00;0.00;;;;;10.60;75.49;-19495.53;4942999;28;45522;-84
2023/01/15 04:44:05;;;;;;;;;0.00;0.00;;;;;10.57;75.00;-19494.88;4943215;28;45448;-88
2023/01/15 04:46:31;;;;;;;;;0.00;0.00;;;;;10.65;74.76;-19496.91;4928554;28;46173;-85
2023/01/15 04:48:57;;;;;;;;;0.00;0.00;;;;;10.62;74.67;-19496.09;4950107;28;45747;-86
2023/01/15 04:51:22;;;;;;;;;0.00;0.00;;;;;10.25;74.72;-19486.38;4942550;28;45575;-89
2023/01/15 04:53:48;;;;;;;;;0.00;0.00;;;;;10.19;74.44;-19484.75;4924185;28;45489;-88
2023/01/15 04:56:14;;;;;;;;;0.00;0.00;;;;;10.55;74.14;-19494.19;4925609;28;47420;-89
2023/01/15 04:58:39;;;;;;;;;1.00;0.00;;;;;10.35;73.79;-19488.94;4934509;28;45466;-92
2023/01/15 05:01:16;;;;;;;;;0.67;0.00;;;;;10.15;73.26;-19483.81;4931804;28;45809;-94
2023/01/15 05:03:42;;;;;;;;;0.00;0.00;;;;;10.01;73.21;-19480.03;4951039;28;45372;-88
2023/01/15 05:06:09;;;;;;;;;1.00;0.00;;;;;10.46;73.88;-19491.78;4941573;28;45584;-88
2023/01/15 05:08:35;;;;;;;;;0.33;0.00;;;;;10.45;73.86;-19491.63;4946775;28;45493;-89
2023/01/15 05:11:05;;;;;;;;;0.00;0.00;;;;;10.32;72.86;-19488.25;4942581;28;47496;-89
2023/01/15 05:13:32;;;;;;;;;0.00;0.00;;;;;10.44;73.61;-19491.22;4944303;28;45964;-88
2023/01/15 05:16:26;;;;;;;;;1.00;0.00;;;;;10.19;73.39;-19484.63;4943824;28;45447;-87
2023/01/15 05:18:55;;;;;;;;;0.00;0.00;;;;;9.71;73.17;-19472.06;4940228;28;45414;-87
2023/01/15 05:21:30;;;;;;;;;0.00;0.00;;;;;10.03;72.64;-19480.44;4958430;28;45558;-87
2023/01/15 05:23:57;;;;;;;;;0.00;0.00;;;;;10.46;72.33;-19491.91;4957534;28;45522;-87
2023/01/15 05:26:23;;;;;;;;;0.00;0.00;;;;;10.15;72.84;-19483.66;4947889;28;47093;-87
2023/01/15 05:28:51;;;;;;;;;0.00;0.00;;;;;10.30;72.52;-19487.72;4939077;28;45421;-87
2023/01/15 05:31:18;;;;;;;;;0.67;0.00;;;;;10.39;72.56;-19490.00;4950193;28;45450;-87
2023/01/15 05:33:46;;;;;;;;;0.00;0.00;;;;;10.30;72.46;-19487.72;4938577;28;45389;-87
2023/01/15 05:36:18;;;;;;;;;0.00;0.00;;;;;10.46;71.75;-19491.78;4946316;28;47310;-87
2023/01/15 05:38:44;;;;;;;;;0.00;0.00;;;;;10.45;72.50;-19491.63;4938698;28;45412;-85
2023/01/15 05:44:01;;;;;;;;;1.00;0.00;;;;;10.46;71.87;-19491.78;4957624;28;45410;-85
2023/01/15 05:46:27;;;;;;;;;0.00;0.00;;;;;10.39;71.33;-19489.88;4958081;28;45662;-85
2023/01/15 05:48:53;;;;;;;;;0.00;0.00;;;;;9.88;71.46;-19476.66;4957717;28;45762;-85
2023/01/15 05:51:18;;;;;;;;;0.00;0.00;;;;;10.44;70.76;-19491.22;4938660;28;45374;-83
2023/01/15 05:53:43;;;;;;;;;0.33;0.00;;;;;10.36;71.03;-19489.22;4922016;28;45660;-84
2023/01/15 05:56:09;;;;;;;;;0.33;0.00;;;;;10.44;70.51;-19491.38;4940236;28;47211;-84
2023/01/15 05:58:35;;;;;;;;;0.00;0.00;;;;;10.45;70.80;-19491.50;4952411;28;45449;-85
2023/01/15 06:01:06;;;;;;;;;0.00;0.00;;;;;10.43;70.59;-19491.09;4957817;28;45482;-85
2023/01/15 06:03:32;;;;;;;;;0.00;0.00;;;;;10.24;70.66;-19485.97;4922063;28;45657;-84
2023/01/15 06:05:57;;;;;;;;;0.00;0.00;;;;;10.31;70.06;-19488.00;4933884;28;46007;-84
2023/01/15 06:08:22;;;;;;;;;0.33;0.00;;;;;10.39;70.07;-19489.88;4948192;28;45509;-85
2023/01/15 06:10:49;;;;;;;;;0.33;0.00;;;;;10.11;69.70;-19482.59;4952055;28;45984;-85
2023/01/15 06:13:15;;;;;;;;;0.00;0.00;;;;;10.37;69.78;-19489.34;4939590;28;45387;-84
2023/01/15 06:15:41;;;;;;;;;0.00;0.00;;;;;10.37;69.83;-19489.47;4938232;28;45535;-84
2023/01/15 06:18:06;;;;;;;;;0.00;0.00;;;;;10.00;69.15;-19479.63;4945782;28;45376;-84
2023/01/15 06:20:34;;;;;;;;;1.00;0.00;;;;;10.29;69.30;-19487.44;4943412;28;46394;-84
2023/01/15 06:23:00;;;;;;;;;0.00;0.00;;;;;10.27;68.52;-19486.91;4957899;28;45512;-85
2023/01/15 06:25:25;;;;;;;;;0.00;0.00;;;;;10.27;69.07;-19486.78;4943905;28;45426;-84
2023/01/15 06:27:50;;;;;;;;;0.00;0.00;;;;;10.25;68.69;-19486.22;4948383;28;45394;-85
2023/01/15 06:30:16;;;;;;;;;0.00;0.00;;;;;9.41;68.65;-19464.22;4947143;28;45625;-85
2023/01/15 06:32:42;;;;;;;;;0.33;0.00;;;;;10.04;68.62;-19480.84;4957491;28;45862;-84
2023/01/15 06:35:07;;;;;;;;;0.00;0.00;;;;;10.19;68.72;-19484.75;4957292;28;46716;-85
2023/01/15 06:37:33;;;;;;;;;0.00;0.00;;;;;9.36;68.37;-19462.75;4945583;28;45417;-84
2023/01/15 06:39:58;;;;;;;;;0.00;0.00;;;;;9.84;68.37;-19475.44;4929364;28;45516;-84
2023/01/15 06:47:54;;;;;;;;;0.00;0.00;;;;;9.73;68.12;-19472.59;4945198;28;45499;-85
2023/01/15 06:50:20;;;;;;;;;0.00;0.00;;;;;9.98;68.75;-19479.22;4938194;28;45391;-84
2023/01/15 06:52:45;;;;;;;;;0.00;0.00;;;;;10.05;68.04;-19481.09;4949081;28;45422;-85
2023/01/15 06:55:10;;;;;;;;;0.00;0.00;;;;;9.76;68.07;-19473.28;4947370;28;46226;-84
2023/01/15 06:57:39;;;;;;;;;1.00;0.00;;;;;9.28;68.16;-19460.72;4943792;28;45466;-84
2023/01/15 07:00:07;;;;;;;;;0.00;0.00;;;;;9.42;68.10;-19464.38;4953000;28;45634;-84
2023/01/15 07:02:32;;;;;;;;;0.00;0.00;;;;;9.72;68.46;-19472.47;4954889;28;45578;-84
2023/01/15 07:04:58;;;;;;;;;0.67;0.00;;;;;9.85;68.67;-19475.84;4955723;28;45507;-84
2023/01/15 07:07:24;;;;;;;;;0.00;0.00;;;;;9.47;68.03;-19465.72;4941846;28;46466;-84
2023/01/15 07:09:49;;;;;;;;;0.00;0.00;;;;;9.15;67.88;-19457.34;4945883;28;45442;-84
2023/01/15 07:12:16;;;;;;;;;0.00;0.00;;;;;9.15;67.72;-19457.34;4944422;28;45702;-85
2023/01/15 07:14:41;;;;;;;;;0.00;0.00;;;;;9.77;68.50;-19473.69;4937293;28;46060;-84
2023/01/15 07:17:07;;;;;;;;;0.00;0.00;;;;;9.27;67.78;-19460.44;4920077;28;45380;-84
2023/01/15 07:19:32;;;;;;;;;0.00;0.00;;;;;9.51;67.90;-19466.94;4937691;28;45452;-85
2023/01/15 07:21:57;;;;;;;;;0.00;0.00;;;;;9.55;67.81;-19467.88;4938435;28;45494;-85
2023/01/15 07:24:23;;;;;;;;;0.00;0.00;;;;;9.03;68.06;-19454.09;4937273;28;45422;-84
2023/01/15 07:26:48;;;;;;;;;1.00;0.00;;;;;9.71;68.39;-19472.19;4955831;28;45757;-85
2023/01/15 07:29:14;;;;;;;;;0.00;0.00;;;;;9.14;68.04;-19456.94;4956632;28;45809;-85
2023/01/15 07:31:40;;;;;;;;;0.67;0.00;;;;;9.43;67.99;-19464.78;4947030;28;45893;-84
2023/01/15 07:34:06;;;;;;;;;0.00;0.00;;;;;9.48;68.13;-19465.97;4937179;28;45781;-84
2023/01/15 07:36:31;;;;;;;;;0.00;0.00;;;;;9.54;68.30;-19467.59;4938530;28;45510;-84
2023/01/15 07:38:57;;;;;;;;;0.00;0.00;;;;;9.58;68.28;-19468.69;4924063;28;45528;-85
2023/01/15 07:49:46;;;;;;;;;0.00;0.00;;;;;9.33;68.76;-19462.06;4937222;28;45472;-85
2023/01/15 07:52:14;;;;;;;;;0.00;0.00;;;;;9.58;68.56;-19468.56;4937661;28;45441;-84
2023/01/15 07:54:39;;;;;;;;;1.00;0.00;;;;;9.58;68.56;-19468.69;4950929;28;45471;-84
2023/01/15 07:57:06;;;;;;;;;1.00;0.00;;;;;9.50;68.60;-19466.53;4951803;28;45486;-84
2023/01/15 07:59:31;;;;;;;;;0.00;0.00;;;;;8.41;68.27;-19437.88;4941989;28;45808;-84
2023/01/15 08:01:56;;;;;;;;;0.00;0.00;;;;;9.18;68.86;-19458.03;4930752;28;45514;-84
2023/01/15 08:04:22;;;;;;;;;0.00;0.00;;;;;9.19;68.24;-19458.28;4953619;28;46516;-85
2023/01/15 08:06:47;;;;;;;;;1.00;0.00;;;;;8.77;68.34;-19447.34;4959620;28;45449;-84
2023/01/15 08:09:12;;;;;;;;;0.00;0.00;;;;;9.60;68.43;-19469.22;4959583;28;45472;-85
2023/01/15 08:17:06;;;;;;;;;0.00;0.00;;;;;9.55;69.14;-19467.75;4958021;28;45578;-84
2023/01/15 08:19:31;;;;;;;;;0.00;0.00;;;;;9.52;68.59;-19467.06;4941609;28;45842;-84
2023/01/15 08:21:59;;;;;;;;;1.00;0.00;;;;;8.62;69.12;-19443.28;4954790;28;45672;-85
2023/01/15 08:24:24;;;;;;;;;1.00;0.00;;;;;9.52;68.88;-19467.19;4943742;28;45942;-85
2023/01/15 08:26:51;;;;;;;;;0.00;0.00;;;;;9.55;68.73;-19467.88;4957995;28;45540;-84
2023/01/15 08:29:17;;;;;;;;;0.67;0.00;;;;;9.28;68.82;-19460.84;4958013;28;45871;-84
2023/01/15 08:31:42;;;;;;;;;0.00;0.00;;;;;9.06;69.23;-19455.03;4953849;28;45474;-85
2023/01/15 08:34:08;;;;;;;;;0.00;0.00;;;;;9.60;68.75;-19469.22;4944159;28;46023;-85
2023/01/15 08:36:33;;;;;;;;;0.00;0.00;;;;;9.46;68.64;-19465.59;4942461;28;45508;-85
2023/01/15 08:38:59;;;;;;;;;2.00;0.00;;;;;9.64;68.68;-19470.31;4950611;28;45473;-84
2023/01/15 08:41:24;;;;;;;;;1.00;0.00;;;;;9.66;68.77;-19470.72;4926697;28;45387;-85
2023/01/15 08:43:49;;;;;;;;;0.00;0.00;;;;;9.59;68.54;-19468.81;4946387;28;45583;-85
2023/01/15 08:46:15;;;;;;;;;0.33;0.00;;;;;9.15;68.85;-19457.34;4949736;28;45481;-85
2023/01/15 08:48:40;;;;;;;;;1.00;1.00;;;;;9.40;68.46;-19463.81;4948763;28;45433;-85
2023/01/15 08:51:08;;;;;;;;;1.00;0.00;;;;;9.72;68.74;-19472.34;4933578;28;45761;-85
2023/01/15 08:53:34;;;;;;;;;0.00;0.00;;;;;9.68;68.37;-19471.38;4942276;28;45491;-85
2023/01/15 08:56:00;;;;;;;;;0.67;0.67;;;;;8.85;68.47;-19449.38;4954699;28;45473;-85
2023/01/15 08:58:30;;;;;;;;;2.33;0.00;;;;;9.63;68.18;-19469.91;4949842;28;45521;-83
2023/01/15 09:00:56;;;;;;;;;0.00;0.00;;;;;9.61;68.20;-19469.50;4943239;28;45432;-85
2023/01/15 09:03:21;;;;;;;;;3.00;0.00;;;;;9.79;67.97;-19474.22;4945001;28;46243;-85
2023/01/15 09:05:47;;;;;;;;;1.00;0.00;;;;;9.84;67.77;-19475.44;4954163;28;45481;-85
2023/01/15 09:08:12;;;;;;;;;0.00;0.00;;;;;9.83;67.20;-19475.31;4941694;28;45937;-87
2023/01/15 09:10:37;;;;;;;;;0.67;0.67;;;;;9.19;67.46;-19458.28;4929789;28;45468;-86
2023/01/15 09:13:03;;;;;;;;;0.00;0.00;;;;;9.92;67.00;-19477.59;4934001;28;46475;-86
2023/01/15 09:15:31;;;;;;;;;0.00;0.00;;;;;9.97;66.75;-19478.94;4954146;28;45411;-86
2023/01/15 09:17:57;;;;;;;;;1.67;0.00;;;;;9.84;66.90;-19475.56;4940037;28;45909;-86
2023/01/15 09:20:23;;;;;;;;;0.00;0.00;;;;;9.86;66.75;-19476.13;4951648;28;45741;-85
2023/01/15 09:22:49;;;;;;;;;0.00;0.00;;;;;9.43;66.66;-19464.78;4946917;28;45521;-86
2023/01/15 09:25:17;;;;;;;;;0.00;0.00;;;;;10.13;66.56;-19483.13;4951182;28;45481;-86
2023/01/15 09:27:42;;;;;;;;;0.00;0.00;;;;;9.73;65.83;-19472.59;4940873;28;45408;-86
2023/01/15 09:30:15;;;;;;;;;0.00;0.00;;;;;10.19;66.25;-19484.63;4944704;28;45562;-86
2023/01/15 09:32:40;;;;;;;;;0.00;0.00;;;;;10.28;65.81;-19487.19;4939381;28;45630;-84
2023/01/15 09:35:06;;;;;;;;;0.00;0.00;;;;;9.86;66.05;-19475.97;4947231;28;45442;-86
2023/01/15 09:37:32;;;;;;;;;2.00;1.00;;;;;9.92;65.67;-19477.72;4944004;28;45957;-86
2023/01/15 09:39:57;;;;;;;;;0.00;0.00;;;;;9.77;65.10;-19471.63;4940552;28;45860;-86
2023/01/15 09:42:25;;;;;;;;;3.00;0.00;;;;;10.40;65.10;-19488.22;4933143;28;48500;-85
2023/01/15 09:45:13;;;;;;;;;0.00;0.00;;;;;10.43;65.21;-19489.16;4952784;28;45489;-85
2023/01/15 09:48:02;;;;;;;;;0.00;0.00;;;;;10.50;64.57;-19490.91;4941060;28;45493;-85
2023/01/15 09:50:51;;;;;;;;;1.00;0.00;;;;;10.33;64.53;-19486.59;4881565;29;45491;-86
2023/01/15 09:53:29;;;;;;;;;0.00;0.00;;;;;10.54;64.27;-19492.00;4875167;29;48519;-85
2023/01/15 09:55:54;;;;;;;;;0.00;0.00;;;;;10.60;63.97;-19493.59;4893190;29;45812;-85
2023/01/15 09:58:31;;;;;;;;;0.00;0.00;;;;;10.31;63.84;-19485.91;4884421;29;45489;-85
2023/01/15 10:00:56;;;;;;;;;1.67;0.00;;;;;10.69;63.83;-19495.91;4894165;29;45611;-85
2023/01/15 10:03:50;;;;;;;;;1.00;0.00;;;;;10.71;63.32;-19165.50;4892282;28;46372;-86
2023/01/15 10:06:27;;;;;;;;;0.00;0.00;;;;;10.70;63.13;-19165.22;4886214;29;45529;-85
2023/01/15 10:09:14;;;;;;;;;1.00;0.00;;;;;10.71;62.92;-19165.63;4887659;29;45774;-85
2023/01/15 10:14:53;;;;;;;;;0.00;0.00;;;;;9.98;62.90;-18816.00;4886804;29;45478;-85
2023/01/15 10:17:25;;;;;;;;;0.00;0.00;;;;;10.75;62.73;-18835.56;4883098;29;45482;-85
2023/01/15 10:19:51;;;;;;;;;1.00;0.00;;;;;10.76;62.92;-18835.94;4877355;29;45534;-85
2023/01/15 10:22:50;;;;;;;;;0.00;0.00;;;;;10.48;62.92;-18828.81;4884064;29;45510;-85
2023/01/15 10:25:22;;;;;;;;;0.00;0.00;;;;;10.66;63.12;-18833.34;4883145;29;47403;-86
2023/01/15 10:27:51;;;;;;;;;0.00;0.00;;;;;10.57;63.03;-18831.16;4886631;28;45695;-87
2023/01/15 10:30:40;;;;;;;;;0.00;0.00;;;;;10.49;63.13;-18829.06;4904594;28;45619;-87
2023/01/15 10:33:23;;;;;;;;;0.00;0.00;;;;;10.83;62.76;-18837.63;4920654;28;45461;-87
2023/01/15 10:36:06;;;;;;;;;0.33;0.00;;;;;10.80;62.70;-18836.72;4921725;28;45758;-89
2023/01/15 10:38:39;;;;;;;;;0.00;0.00;;;;;10.89;62.82;-18839.03;4931425;28;45546;-91
2023/01/15 10:41:22;;;;;;;;;1.00;0.00;;;;;11.06;62.31;-18843.44;4913759;28;45414;-91
2023/01/15 10:44:11;;;;;;;;;0.00;0.00;;;;;10.44;62.59;-18827.66;4918094;28;45839;-91
2023/01/15 10:46:39;;;;;;;;;1.00;0.00;;;;;10.51;62.33;-18829.47;4912127;28;47294;-90
2023/01/15 10:49:14;;;;;;;;;0.00;0.00;;;;;10.97;62.51;-18841.13;4928062;28;45348;-94
2023/01/15 10:51:48;;;;;;;;;0.67;0.00;;;;;10.57;62.61;-18831.03;4919464;28;45430;-94
2023/01/15 10:54:14;;;;;;;;;1.33;0.00;;;;;11.24;62.12;-18847.84;4934501;28;45382;-94
2023/01/15 10:56:42;;;;;;;;;0.67;0.00;;;;;11.27;62.24;-18848.75;4914388;28;47415;-92
2023/01/15 10:59:23;;;;;;;;;1.00;0.00;;;;;10.22;62.14;-18822.22;4915312;28;45808;-90
2023/01/15 11:01:52;;;;;;;;;0.67;0.67;;;;;11.33;61.95;-18850.31;4912689;28;45945;-91
2023/01/15 11:04:18;;;;;;;;;0.33;0.33;;;;;11.31;61.62;-18518.34;4930457;28;45434;-93
2023/01/15 11:06:44;;;;;;;;;0.00;0.00;;;;;10.11;61.39;-18488.66;4925356;28;45930;-90
2023/01/15 11:09:29;;;;;;;;;1.00;0.00;;;;;10.95;61.75;-18840.59;4924323;28;46436;-88
2023/01/15 11:20:36;;;;;;;;;0.00;0.00;;;;;11.30;61.62;-18518.06;4924001;28;45778;-88
2023/01/15 11:23:18;;;;;;;;;0.00;0.00;;;;;11.06;61.45;-18512.13;4914800;28;45859;-89
2023/01/15 11:25:53;;;;;;;;;0.00;0.00;;;;;11.46;61.38;-18522.13;4926459;28;45415;-88
2023/01/15 11:28:31;;;;;;;;;1.67;0.00;;;;;11.55;61.64;-18524.28;4922284;28;48143;-88
2023/01/15 11:30:58;;;;;;;;;1.67;0.00;;;;;11.52;60.88;-18192.06;4930714;28;45544;-88
2023/01/15 11:33:26;;;;;;;;;5.00;0.00;;;;;11.51;61.08;-18191.81;4919285;28;45641;-85
2023/01/15 11:35:57;;;;;;;;;3.33;0.00;;;;;11.57;60.68;-18193.41;4934283;28;45599;-88
2023/01/15 11:38:24;;;;;;;;;1.00;0.00;;;;;11.06;61.09;-18180.91;4923599;28;46089;-88
2023/01/15 11:41:00;;;;;;;;;1.00;0.00;;;;;11.16;60.52;-18183.38;4909559;28;45527;-88
2023/01/15 11:51:57;;;;;;;;;0.00;0.00;;;;;11.56;60.09;-17861.53;4916336;28;45548;-86
2023/01/15 11:54:24;;;;;;;;;1.33;0.00;;;;;11.84;59.43;-17868.19;4937959;28;45544;-87
2023/01/15 11:56:49;;;;;;;;;0.00;0.00;;;;;11.73;59.62;-17865.53;4924050;28;45918;-88
2023/01/15 11:59:18;;;;;;;;;0.67;0.00;;;;;12.00;59.51;-17872.06;4933886;28;47527;-89
2023/01/15 12:01:56;;;;;;;;;0.00;0.00;;;;;11.51;59.11;-17528.81;4945455;28;45515;-89
2023/01/15 12:04:40;;;;;;;;;0.00;0.00;;;;;12.23;58.63;-17545.63;4945443;28;45543;-87
2023/01/15 12:07:12;;;;;;;;;0.00;0.00;;;;;11.60;58.49;-17862.63;4931335;28;46560;-88
2023/01/15 12:10:03;;;;;;;;;1.67;0.00;;;;;12.42;58.48;-17550.00;4922574;28;47385;-88
2023/01/15 12:12:50;;;;;;;;;1.00;0.00;;;;;12.56;58.50;-17885.25;4932938;28;45602;-89
2023/01/15 12:15:56;;;;;;;;;0.00;0.00;;;;;12.61;57.69;-17554.25;4928925;28;45702;-89
2023/01/15 12:18:50;;;;;;;;;0.33;0.33;;;;;12.65;57.12;-16890.88;4852284;29;46082;-89
2023/01/15 12:21:37;;;;;;;;;1.00;0.00;;;;;12.77;57.36;-17225.81;4871093;29;46053;-91
2023/01/15 12:24:46;;;;;;;;;3.33;0.00;;;;;12.85;57.65;-17227.66;4856257;29;45910;-91
2023/01/15 12:27:20;;;;;;;;;0.00;0.00;;;;;13.02;57.10;-17231.38;4858700;29;45577;-91
2023/01/15 12:29:59;;;;;;;;;0.00;0.00;;;;;12.52;56.81;-17220.03;4870066;29;45459;-91